createdAt,value
2023-05-13T00:02:56.713Z,101474.53
2023-05-13T00:07:59.182Z,101479.97
2023-05-13T00:13:02.898Z,101473.09
2023-05-13T00:18:05.140Z,101476.63
2023-05-13T00:23:07.305Z,101475.91
2023-05-13T00:28:10.823Z,101479.59
2023-05-13T00:33:12.992Z,101489.34
2023-05-13T00:38:15.081Z,101485.09
2023-05-13T00:43:19.131Z,101491.38
2023-05-13T00:48:22.201Z,101495.94
2023-05-13T00:53:24.448Z,101495.16
2023-05-13T00:58:28.017Z,101493.34
2023-05-13T01:03:35.362Z,101501.47
2023-05-13T01:08:46.808Z,101504.28
2023-05-13T01:14:01.671Z,101508.75
2023-05-13T01:19:13.699Z,101504.31
2023-05-13T01:24:17.444Z,101518.47
2023-05-13T01:29:19.676Z,101523.84
2023-05-13T01:34:24.146Z,101526.53
2023-05-13T01:39:30.857Z,101522.19
2023-05-13T01:44:33.307Z,101520.41
2023-05-13T01:49:35.661Z,101523.91
2023-05-13T01:54:39.149Z,101526.59
2023-05-13T01:59:41.435Z,101528.31
2023-05-13T02:04:43.793Z,101526.47
2023-05-13T02:09:47.159Z,101533.59
2023-05-13T02:14:49.371Z,101527.44
2023-05-13T02:19:51.077Z,101530.16
2023-05-13T02:24:54.455Z,101530.22
2023-05-13T02:29:56.389Z,101535.53
2023-05-13T02:34:58.406Z,101542.66
2023-05-13T02:40:01.732Z,101539.16
2023-05-13T02:45:04.353Z,101542.75
2023-05-13T02:50:07.836Z,101543.63
2023-05-13T02:55:11.414Z,101540.97
2023-05-13T03:00:14.665Z,101540.03
2023-05-13T03:05:16.991Z,101547.16
2023-05-13T03:10:20.719Z,101547.16
2023-05-13T03:15:23.047Z,101545.41
2023-05-13T03:20:25.145Z,101545.41
2023-05-13T03:25:28.734Z,101551.66
2023-05-13T03:30:30.956Z,101553.50
2023-05-13T03:35:33.162Z,101556.16
2023-05-13T03:40:36.623Z,101557.94
2023-05-13T03:45:38.781Z,101563.22
2023-05-13T03:50:40.743Z,101572.09
2023-05-13T03:55:43.826Z,101575.66
2023-05-13T04:00:45.972Z,101567.66
2023-05-13T04:05:49.494Z,101579.19
2023-05-13T04:10:53.036Z,101580.94
2023-05-13T04:15:55.038Z,101589.75
2023-05-13T04:20:57.219Z,101601.28
2023-05-13T04:26:00.825Z,101599.47
2023-05-13T04:31:03.017Z,101602.03
2023-05-13T04:36:06.010Z,101614.09
2023-05-13T04:41:09.522Z,101617.75
2023-05-13T04:46:11.236Z,101621.78
2023-05-13T04:51:13.060Z,101627.13
2023-05-13T04:56:16.905Z,101632.31
2023-05-13T05:01:19.064Z,101636.47
2023-05-13T05:06:21.467Z,101632.66
2023-05-13T05:11:24.842Z,101634.72
2023-05-13T05:16:26.892Z,101642.44
2023-05-13T05:21:29.141Z,101641.41
2023-05-13T05:26:32.795Z,101653.13
2023-05-13T05:31:35.194Z,101650.53
2023-05-13T05:36:38.315Z,101655.75
2023-05-13T05:41:42.001Z,101663.78
2023-05-13T05:46:44.095Z,101662.59
2023-05-13T05:51:46.047Z,101666.03
2023-05-13T05:56:49.484Z,101665.13
2023-05-13T06:01:51.370Z,101669.63
2023-05-13T06:06:53.810Z,101666.03
2023-05-13T06:11:57.220Z,101664.88
2023-05-13T06:16:59.007Z,101660.22
2023-05-13T06:22:03.211Z,101653.84
2023-05-13T06:27:07.774Z,101667.44
2023-05-13T06:32:09.997Z,101663.47
2023-05-13T06:37:12.696Z,101651.78
2023-05-13T06:42:16.464Z,101665.28
2023-05-13T06:47:19.893Z,101653.41
2023-05-13T06:52:23.311Z,101657.28
2023-05-13T06:57:38.871Z,101648.53
2023-05-13T07:02:44.305Z,101641.13
2023-05-13T07:07:46.935Z,101637.41
2023-05-13T07:12:50.257Z,101634.84
2023-05-13T07:17:52.094Z,101630.00
2023-05-13T07:22:54.205Z,101636.94
2023-05-13T07:27:57.835Z,101634.91
2023-05-13T07:32:59.722Z,101623.66
2023-05-13T07:38:02.210Z,101616.72
2023-05-13T07:43:05.634Z,101623.38
2023-05-13T07:48:08.014Z,101614.25
2023-05-13T07:53:10.430Z,101602.50
2023-05-13T07:58:14.303Z,101603.28
2023-05-13T08:03:16.375Z,101610.63
2023-05-13T08:08:18.750Z,101606.19
2023-05-13T08:13:21.889Z,101606.94
2023-05-13T08:18:24.011Z,101613.25
2023-05-13T08:23:40.366Z,101620.03
2023-05-13T08:28:49.108Z,101614.59
2023-05-13T08:33:52.145Z,101619.72
2023-05-13T08:38:53.848Z,101627.84
2023-05-13T08:43:58.677Z,101618.09
2023-05-13T08:49:02.122Z,101629.34
2023-05-13T08:54:04.685Z,101625.31
2023-05-13T08:59:07.979Z,101619.22
2023-05-13T09:04:11.048Z,101620.22
2023-05-13T09:09:13.133Z,101625.78
2023-05-13T09:14:19.530Z,101624.88
2023-05-13T09:19:24.623Z,101620.03
2023-05-13T09:24:26.888Z,101609.81
2023-05-13T09:29:30.311Z,101616.41
2023-05-13T09:34:35.164Z,101613.44
2023-05-13T09:39:41.444Z,101612.72
2023-05-13T09:44:46.166Z,101609.34
2023-05-13T09:49:56.568Z,101607.91
2023-05-13T09:54:59.009Z,101610.94
2023-05-13T10:00:05.009Z,101607.56
2023-05-13T10:05:09.855Z,101599.81
2023-05-13T10:10:12.725Z,101604.19
2023-05-13T10:15:16.493Z,101602.38
2023-05-13T10:20:19.232Z,101588.25
2023-05-13T10:25:21.807Z,101593.50
2023-05-13T10:30:25.079Z,101598.91
2023-05-13T10:35:31.592Z,101596.84
2023-05-13T10:41:01.537Z,101591.06
2023-05-13T10:46:06.841Z,101599.88
2023-05-13T10:51:10.500Z,101577.88
2023-05-13T10:56:12.395Z,101581.91
2023-05-13T11:01:17.818Z,101583.56
2023-05-13T11:06:21.804Z,101581.00
2023-05-13T11:11:26.359Z,101581.63
2023-05-13T11:16:29.959Z,101589.13
2023-05-13T11:21:36.040Z,101573.34
2023-05-13T11:26:49.376Z,101573.97
2023-05-13T11:31:53.551Z,101556.28
2023-05-13T11:37:06.228Z,101575.56
2023-05-13T11:42:10.141Z,101557.00
2023-05-13T11:47:13.916Z,101568.63
2023-05-13T11:52:18.056Z,101563.13
2023-05-13T11:57:21.763Z,101569.53
2023-05-13T12:02:27.646Z,101557.78
2023-05-13T12:07:30.515Z,101542.97
2023-05-13T12:12:34.807Z,101561.47
2023-05-13T12:17:38.141Z,101542.78
2023-05-13T12:22:54.708Z,101542.84
2023-05-13T12:27:56.778Z,101521.44
2023-05-13T12:33:00.449Z,101543.50
2023-05-13T12:38:04.300Z,101547.50
2023-05-13T12:43:05.991Z,101540.81
2023-05-13T12:48:10.400Z,101541.03
2023-05-13T12:53:12.608Z,101534.75
2023-05-13T12:58:14.488Z,101536.41
2023-05-13T13:03:18.178Z,101530.53
2023-05-13T13:08:20.563Z,101529.53
2023-05-13T13:13:23.885Z,101528.06
2023-05-13T13:18:27.706Z,101540.00
2023-05-13T13:23:29.587Z,101528.72
2023-05-13T13:28:31.606Z,101523.34
2023-05-13T13:33:35.207Z,101528.59
2023-05-13T13:38:37.255Z,101523.81
2023-05-13T13:43:39.266Z,101524.34
2023-05-13T13:48:42.403Z,101521.72
2023-05-13T13:53:44.739Z,101514.69
2023-05-13T13:58:46.996Z,101512.47
2023-05-13T14:03:51.269Z,101511.72
2023-05-13T14:08:53.630Z,101498.31
2023-05-13T14:13:56.413Z,101503.03
2023-05-13T14:19:00.845Z,101496.69
2023-05-13T14:24:03.120Z,101490.91
2023-05-13T14:29:05.799Z,101493.47
2023-05-13T14:34:09.169Z,101491.31
2023-05-13T14:39:11.303Z,101495.03
2023-05-13T14:44:13.943Z,101490.88
2023-05-13T14:49:17.468Z,101487.59
2023-05-13T14:54:19.377Z,101482.28
2023-05-13T14:59:21.343Z,101482.06
2023-05-13T15:04:24.566Z,101484.50
2023-05-13T15:09:26.742Z,101481.41
2023-05-13T15:14:29.655Z,101481.63
2023-05-13T15:19:32.895Z,101486.31
2023-05-13T15:24:35.584Z,101484.13
2023-05-13T15:29:37.629Z,101474.50
2023-05-13T15:34:41.746Z,101470.47
2023-05-13T15:39:44.529Z,101466.88
2023-05-13T15:44:47.013Z,101464.63
2023-05-13T15:49:50.539Z,101467.44
2023-05-13T15:54:52.865Z,101472.59
2023-05-13T15:59:55.309Z,101478.75
2023-05-13T16:04:58.683Z,101472.84
2023-05-13T16:10:01.051Z,101464.78
2023-05-13T16:15:04.129Z,101494.66
2023-05-13T16:20:11.505Z,101493.41
2023-05-13T16:25:14.464Z,101509.97
2023-05-13T16:30:16.749Z,101521.41
2023-05-13T16:35:21.051Z,101523.84
2023-05-13T16:40:23.241Z,101523.91
2023-05-13T16:45:25.952Z,101524.53
2023-05-13T16:50:30.268Z,101527.22
2023-05-13T16:55:32.108Z,101516.69
2023-05-13T17:00:33.858Z,101540.50
2023-05-13T17:05:37.516Z,101539.59
2023-05-13T17:10:40.007Z,101544.84
2023-05-13T17:15:42.005Z,101540.94
2023-05-13T17:20:45.610Z,101551.56
2023-05-13T17:25:47.795Z,101561.84
2023-05-13T17:30:50.119Z,101566.50
2023-05-13T17:35:53.302Z,101566.50
2023-05-13T17:40:55.448Z,101565.06
2023-05-13T17:45:57.763Z,101561.63
2023-05-13T17:51:01.036Z,101573.59
2023-05-13T17:56:04.060Z,101585.16
2023-05-13T18:01:05.965Z,101574.81
2023-05-13T18:06:09.781Z,101580.75
2023-05-13T18:11:11.756Z,101576.91
2023-05-13T18:16:14.041Z,101565.16
2023-05-13T18:21:17.464Z,101574.88
2023-05-13T18:26:19.336Z,101584.53
2023-05-13T18:31:21.598Z,101574.81
2023-05-13T18:36:24.840Z,101568.97
2023-05-13T18:41:26.864Z,101581.94
2023-05-13T18:46:29.215Z,101577.22
2023-05-13T18:51:32.916Z,101582.56
2023-05-13T18:56:35.186Z,101590.81
2023-05-13T19:01:37.198Z,101580.41
2023-05-13T19:06:40.545Z,101583.34
2023-05-13T19:11:43.882Z,101585.81
2023-05-13T19:16:46.413Z,101587.94
2023-05-13T19:21:49.798Z,101585.50
2023-05-13T19:26:51.573Z,101591.09
2023-05-13T19:31:53.692Z,101586.78
2023-05-13T19:36:57.250Z,101588.03
2023-05-13T19:41:59.529Z,101585.88
2023-05-13T19:47:02.616Z,101579.31
2023-05-13T19:52:06.440Z,101573.59
2023-05-13T19:57:08.642Z,101578.75
2023-05-13T20:02:10.851Z,101582.81
2023-05-13T20:07:13.958Z,101592.31
2023-05-13T20:12:16.087Z,101595.47
2023-05-13T20:17:19.638Z,101590.75
2023-05-13T20:22:23.173Z,101590.16
2023-05-13T20:27:24.904Z,101586.97
2023-05-13T20:32:27.572Z,101592.66
2023-05-13T20:37:31.599Z,101586.75
2023-05-13T20:42:33.391Z,101595.81
2023-05-13T20:47:35.515Z,101593.22
2023-05-13T20:52:39.108Z,101592.50
2023-05-13T20:57:41.475Z,101590.69
2023-05-13T21:02:43.625Z,101595.09
2023-05-13T21:07:47.338Z,101581.91
2023-05-13T21:12:49.479Z,101587.41
2023-05-13T21:17:51.835Z,101589.31
2023-05-13T21:22:55.613Z,101584.09
2023-05-13T21:27:57.862Z,101589.53
2023-05-13T21:33:00.212Z,101586.97
2023-05-13T21:38:11.641Z,101587.81
2023-05-13T21:43:15.108Z,101588.72
2023-05-13T21:48:17.334Z,101587.03
2023-05-13T21:53:20.853Z,101579.97
2023-05-13T21:58:23.705Z,101590.63
2023-05-13T22:03:25.836Z,101581.81
2023-05-13T22:08:29.463Z,101585.44
2023-05-13T22:13:31.890Z,101587.25
2023-05-13T22:18:34.400Z,101585.47
2023-05-13T22:23:38.302Z,101575.75
2023-05-13T22:28:40.447Z,101575.78
2023-05-13T22:33:42.667Z,101572.25
2023-05-13T22:38:46.155Z,101577.56
2023-05-13T22:43:47.839Z,101585.50
2023-05-13T22:48:49.934Z,101584.63
2023-05-13T22:53:53.075Z,101581.97
2023-05-13T22:58:55.035Z,101574.88
2023-05-13T23:03:57.051Z,101578.44
2023-05-13T23:09:00.920Z,101580.16
2023-05-13T23:14:02.972Z,101568.66
2023-05-13T23:19:05.774Z,101577.50
2023-05-13T23:24:09.327Z,101566.81
2023-05-13T23:29:11.349Z,101567.69
2023-05-13T23:34:13.265Z,101565.00
2023-05-13T23:39:16.752Z,101557.06
2023-05-13T23:44:18.672Z,101555.31
2023-05-13T23:49:21.421Z,101554.41
2023-05-13T23:54:24.962Z,101558.91
2023-05-13T23:59:26.897Z,101559.81
